sensor_id;sensor_type;location;lat;lon;timestamp;temperature;humidity
21184;DHT22;18176;49.502;11.754;2024-03-22T00:01:42;4.60;99.90
21184;DHT22;18176;49.502;11.754;2024-03-22T00:05:59;4.60;99.90
21184;DHT22;18176;49.502;11.754;2024-03-22T00:10:19;4.60;99.90
21184;DHT22;18176;49.502;11.754;2024-03-22T00:14:36;4.50;99.90
21184;DHT22;18176;49.502;11.754;2024-03-22T00:18:53;4.50;99.90
21184;DHT22;18176;49.502;11.754;2024-03-22T00:23:10;4.50;99.90
21184;DHT22;18176;49.502;11.754;2024-03-22T00:27:30;4.40;99.90
21184;DHT22;18176;49.502;11.754;2024-03-22T00:31:47;4.40;99.90
21184;DHT22;18176;49.502;11.754;2024-03-22T00:36:04;4.30;99.90
21184;DHT22;18176;49.502;11.754;2024-03-22T00:40:22;4.30;99.90
21184;DHT22;18176;49.502;11.754;2024-03-22T00:44:41;4.30;99.90
21184;DHT22;18176;49.502;11.754;2024-03-22T00:48:58;4.20;99.90
21184;DHT22;18176;49.502;11.754;2024-03-22T00:53:15;4.10;99.90
21184;DHT22;18176;49.502;11.754;2024-03-22T00:57:32;4.00;99.90
21184;DHT22;18176;49.502;11.754;2024-03-22T01:01:52;3.90;99.90
21184;DHT22;18176;49.502;11.754;2024-03-22T01:06:08;3.90;99.90
21184;DHT22;18176;49.502;11.754;2024-03-22T01:10:25;3.80;99.90
21184;DHT22;18176;49.502;11.754;2024-03-22T01:14:42;3.70;99.90
21184;DHT22;18176;49.502;11.754;2024-03-22T01:19:02;3.70;99.90
21184;DHT22;18176;49.502;11.754;2024-03-22T01:23:19;3.60;99.90
21184;DHT22;18176;49.502;11.754;2024-03-22T01:27:35;3.60;99.90
21184;DHT22;18176;49.502;11.754;2024-03-22T01:31:52;3.50;99.90
21184;DHT22;18176;49.502;11.754;2024-03-22T01:36:12;3.50;99.90
21184;DHT22;18176;49.502;11.754;2024-03-22T01:40:29;3.40;99.90
21184;DHT22;18176;49.502;11.754;2024-03-22T01:44:45;3.40;99.90
21184;DHT22;18176;49.502;11.754;2024-03-22T01:49:03;3.40;99.90
21184;DHT22;18176;49.502;11.754;2024-03-22T01:53:22;3.30;99.90
21184;DHT22;18176;49.502;11.754;2024-03-22T01:57:40;3.30;99.90
21184;DHT22;18176;49.502;11.754;2024-03-22T02:02:02;3.20;99.90
21184;DHT22;18176;49.502;11.754;2024-03-22T02:06:19;3.10;99.90
21184;DHT22;18176;49.502;11.754;2024-03-22T02:10:38;3.20;99.90
21184;DHT22;18176;49.502;11.754;2024-03-22T02:14:57;3.10;99.90
21184;DHT22;18176;49.502;11.754;2024-03-22T02:19:14;3.10;99.90
21184;DHT22;18176;49.502;11.754;2024-03-22T02:23:35;3.10;99.90
21184;DHT22;18176;49.502;11.754;2024-03-22T02:27:53;2.90;99.90
21184;DHT22;18176;49.502;11.754;2024-03-22T02:32:10;2.90;99.90
21184;DHT22;18176;49.502;11.754;2024-03-22T02:36:26;2.80;99.90
21184;DHT22;18176;49.502;11.754;2024-03-22T02:40:47;2.70;99.90
21184;DHT22;18176;49.502;11.754;2024-03-22T02:45:06;2.60;99.90
21184;DHT22;18176;49.502;11.754;2024-03-22T02:49:25;2.70;99.90
21184;DHT22;18176;49.502;11.754;2024-03-22T02:53:42;2.60;99.90
21184;DHT22;18176;49.502;11.754;2024-03-22T02:58:01;2.60;99.90
21184;DHT22;18176;49.502;11.754;2024-03-22T03:02:18;2.60;99.90
21184;DHT22;18176;49.502;11.754;2024-03-22T03:06:35;2.60;99.90
21184;DHT22;18176;49.502;11.754;2024-03-22T03:10:52;2.60;99.90
21184;DHT22;18176;49.502;11.754;2024-03-22T03:15:12;2.60;99.90
21184;DHT22;18176;49.502;11.754;2024-03-22T03:19:28;2.70;99.90
21184;DHT22;18176;49.502;11.754;2024-03-22T03:23:45;2.70;99.90
21184;DHT22;18176;49.502;11.754;2024-03-22T03:28:02;2.70;99.90
21184;DHT22;18176;49.502;11.754;2024-03-22T03:32:22;2.70;99.90
21184;DHT22;18176;49.502;11.754;2024-03-22T03:36:39;2.80;99.90
21184;DHT22;18176;49.502;11.754;2024-03-22T03:40:56;2.80;99.90
21184;DHT22;18176;49.502;11.754;2024-03-22T03:45:13;2.80;99.90
21184;DHT22;18176;49.502;11.754;2024-03-22T03:49:33;2.80;99.90
21184;DHT22;18176;49.502;11.754;2024-03-22T03:53:49;2.70;99.90
21184;DHT22;18176;49.502;11.754;2024-03-22T03:58:06;2.70;99.90
21184;DHT22;18176;49.502;11.754;2024-03-22T04:02:23;2.70;99.90
21184;DHT22;18176;49.502;11.754;2024-03-22T04:06:43;2.70;99.90
21184;DHT22;18176;49.502;11.754;2024-03-22T04:11:00;2.70;99.90
21184;DHT22;18176;49.502;11.754;2024-03-22T04:15:17;2.70;99.90
21184;DHT22;18176;49.502;11.754;2024-03-22T04:19:34;2.70;99.90
21184;DHT22;18176;49.502;11.754;2024-03-22T04:23:53;2.60;99.90
21184;DHT22;18176;49.502;11.754;2024-03-22T04:28:10;2.60;99.90
21184;DHT22;18176;49.502;11.754;2024-03-22T04:32:27;2.50;99.90
21184;DHT22;18176;49.502;11.754;2024-03-22T04:36:44;2.50;99.90
21184;DHT22;18176;49.502;11.754;2024-03-22T04:41:04;2.40;99.90
21184;DHT22;18176;49.502;11.754;2024-03-22T04:45:20;2.30;99.90
21184;DHT22;18176;49.502;11.754;2024-03-22T04:49:37;2.30;99.90
21184;DHT22;18176;49.502;11.754;2024-03-22T04:53:54;2.20;99.90
21184;DHT22;18176;49.502;11.754;2024-03-22T04:58:16;2.10;99.90
21184;DHT22;18176;49.502;11.754;2024-03-22T05:02:34;2.10;99.90
21184;DHT22;18176;49.502;11.754;2024-03-22T05:06:51;2.00;99.90
21184;DHT22;18176;49.502;11.754;2024-03-22T05:11:08;2.00;99.90
21184;DHT22;18176;49.502;11.754;2024-03-22T05:15:27;1.90;99.90
21184;DHT22;18176;49.502;11.754;2024-03-22T05:19:44;1.90;99.90
21184;DHT22;18176;49.502;11.754;2024-03-22T05:24:01;1.90;99.90
21184;DHT22;18176;49.502;11.754;2024-03-22T05:28:18;1.80;99.90
21184;DHT22;18176;49.502;11.754;2024-03-22T05:32:37;1.90;99.90
21184;DHT22;18176;49.502;11.754;2024-03-22T05:36:54;1.90;99.90
21184;DHT22;18176;49.502;11.754;2024-03-22T05:41:11;1.90;99.90
21184;DHT22;18176;49.502;11.754;2024-03-22T05:45:28;2.00;99.90
21184;DHT22;18176;49.502;11.754;2024-03-22T05:49:48;2.10;99.90
21184;DHT22;18176;49.502;11.754;2024-03-22T05:54:05;2.10;99.90
21184;DHT22;18176;49.502;11.754;2024-03-22T05:58:21;2.20;99.90
21184;DHT22;18176;49.502;11.754;2024-03-22T06:02:38;2.40;99.90
21184;DHT22;18176;49.502;11.754;2024-03-22T06:06:58;2.60;99.90
21184;DHT22;18176;49.502;11.754;2024-03-22T06:11:15;2.80;99.90
21184;DHT22;18176;49.502;11.754;2024-03-22T06:15:32;2.90;99.90
21184;DHT22;18176;49.502;11.754;2024-03-22T06:19:48;3.10;99.90
21184;DHT22;18176;49.502;11.754;2024-03-22T06:24:08;3.20;99.90
21184;DHT22;18176;49.502;11.754;2024-03-22T06:28:28;3.20;99.90
21184;DHT22;18176;49.502;11.754;2024-03-22T06:32:45;3.20;99.90
21184;DHT22;18176;49.502;11.754;2024-03-22T06:37:02;3.20;99.90
21184;DHT22;18176;49.502;11.754;2024-03-22T06:41:22;3.30;99.90
21184;DHT22;18176;49.502;11.754;2024-03-22T06:45:39;3.40;99.90
21184;DHT22;18176;49.502;11.754;2024-03-22T06:49:56;3.50;99.90
21184;DHT22;18176;49.502;11.754;2024-03-22T06:54:12;3.60;99.90
21184;DHT22;18176;49.502;11.754;2024-03-22T06:58:32;3.70;99.90
21184;DHT22;18176;49.502;11.754;2024-03-22T07:02:49;3.80;99.90
21184;DHT22;18176;49.502;11.754;2024-03-22T07:07:06;4.10;99.90
21184;DHT22;18176;49.502;11.754;2024-03-22T07:11:23;4.50;99.90
21184;DHT22;18176;49.502;11.754;2024-03-22T07:15:44;4.80;99.90
21184;DHT22;18176;49.502;11.754;2024-03-22T07:20:01;5.10;99.90
21184;DHT22;18176;49.502;11.754;2024-03-22T07:24:18;5.30;99.90
21184;DHT22;18176;49.502;11.754;2024-03-22T07:28:35;5.30;99.90
21184;DHT22;18176;49.502;11.754;2024-03-22T07:32:54;5.40;99.90
21184;DHT22;18176;49.502;11.754;2024-03-22T07:37:11;5.60;99.90
21184;DHT22;18176;49.502;11.754;2024-03-22T07:41:29;6.00;99.90
21184;DHT22;18176;49.502;11.754;2024-03-22T07:45:45;6.20;99.90
21184;DHT22;18176;49.502;11.754;2024-03-22T07:50:06;6.40;99.90
21184;DHT22;18176;49.502;11.754;2024-03-22T07:54:24;6.60;99.90
21184;DHT22;18176;49.502;11.754;2024-03-22T07:58:41;6.60;99.90
21184;DHT22;18176;49.502;11.754;2024-03-22T08:02:58;6.90;99.90
21184;DHT22;18176;49.502;11.754;2024-03-22T08:07:17;7.00;99.90
21184;DHT22;18176;49.502;11.754;2024-03-22T08:11:34;7.10;99.90
21184;DHT22;18176;49.502;11.754;2024-03-22T08:15:51;7.30;99.90
21184;DHT22;18176;49.502;11.754;2024-03-22T08:20:09;7.50;99.90
21184;DHT22;18176;49.502;11.754;2024-03-22T08:24:28;7.70;99.90
21184;DHT22;18176;49.502;11.754;2024-03-22T08:28:46;8.00;99.90
21184;DHT22;18176;49.502;11.754;2024-03-22T08:33:04;8.10;99.90
21184;DHT22;18176;49.502;11.754;2024-03-22T08:37:21;8.40;99.90
21184;DHT22;18176;49.502;11.754;2024-03-22T08:41:40;8.60;99.90
21184;DHT22;18176;49.502;11.754;2024-03-22T08:45:57;8.80;99.90
21184;DHT22;18176;49.502;11.754;2024-03-22T08:50:14;9.00;99.90
21184;DHT22;18176;49.502;11.754;2024-03-22T08:54:31;9.10;99.90
21184;DHT22;18176;49.502;11.754;2024-03-22T08:58:50;9.10;99.90
21184;DHT22;18176;49.502;11.754;2024-03-22T09:03:08;9.30;99.90
21184;DHT22;18176;49.502;11.754;2024-03-22T09:07:25;9.70;99.90
21184;DHT22;18176;49.502;11.754;2024-03-22T09:11:42;9.60;99.90
21184;DHT22;18176;49.502;11.754;2024-03-22T09:16:01;9.70;99.90
21184;DHT22;18176;49.502;11.754;2024-03-22T09:20:18;9.60;99.90
21184;DHT22;18176;49.502;11.754;2024-03-22T09:24:35;10.00;99.90
21184;DHT22;18176;49.502;11.754;2024-03-22T09:28:53;10.30;99.90
21184;DHT22;18176;49.502;11.754;2024-03-22T09:33:13;10.80;99.90
21184;DHT22;18176;49.502;11.754;2024-03-22T09:37:30;11.30;99.90
21184;DHT22;18176;49.502;11.754;2024-03-22T09:41:47;12.20;99.90
21184;DHT22;18176;49.502;11.754;2024-03-22T09:46:06;12.50;99.90
21184;DHT22;18176;49.502;11.754;2024-03-22T09:50:27;12.50;99.90
21184;DHT22;18176;49.502;11.754;2024-03-22T09:54:46;12.30;99.90
21184;DHT22;18176;49.502;11.754;2024-03-22T09:59:02;12.00;99.90
21184;DHT22;18176;49.502;11.754;2024-03-22T10:03:20;11.60;99.90
21184;DHT22;18176;49.502;11.754;2024-03-22T10:07:40;11.60;99.90
21184;DHT22;18176;49.502;11.754;2024-03-22T10:11:58;12.40;99.90
21184;DHT22;18176;49.502;11.754;2024-03-22T10:16:16;13.30;99.90
21184;DHT22;18176;49.502;11.754;2024-03-22T10:20:35;14.20;99.90
21184;DHT22;18176;49.502;11.754;2024-03-22T10:24:55;14.70;99.90
21184;DHT22;18176;49.502;11.754;2024-03-22T10:29:12;15.70;99.90
21184;DHT22;18176;49.502;11.754;2024-03-22T10:33:29;16.20;99.90
21184;DHT22;18176;49.502;11.754;2024-03-22T10:37:46;17.40;99.90
21184;DHT22;18176;49.502;11.754;2024-03-22T10:42:08;17.60;99.90
21184;DHT22;18176;49.502;11.754;2024-03-22T10:46:29;17.60;99.90
21184;DHT22;18176;49.502;11.754;2024-03-22T10:50:47;17.00;99.90
21184;DHT22;18176;49.502;11.754;2024-03-22T10:55:08;17.10;99.90
21184;DHT22;18176;49.502;11.754;2024-03-22T10:59:36;17.60;99.90
21184;DHT22;18176;49.502;11.754;2024-03-22T11:04:03;17.90;99.90
21184;DHT22;18176;49.502;11.754;2024-03-22T11:08:23;18.60;99.90
21184;DHT22;18176;49.502;11.754;2024-03-22T11:12:41;19.00;99.90
21184;DHT22;18176;49.502;11.754;2024-03-22T11:17:01;19.40;99.90
21184;DHT22;18176;49.502;11.754;2024-03-22T11:21:18;19.20;99.90
21184;DHT22;18176;49.502;11.754;2024-03-22T11:25:35;19.40;99.90
21184;DHT22;18176;49.502;11.754;2024-03-22T11:29:52;19.30;92.50
21184;DHT22;18176;49.502;11.754;2024-03-22T11:34:11;18.90;91.90
21184;DHT22;18176;49.502;11.754;2024-03-22T11:38:29;18.70;92.20
21184;DHT22;18176;49.502;11.754;2024-03-22T11:42:49;18.70;90.70
21184;DHT22;18176;49.502;11.754;2024-03-22T11:47:08;18.00;82.20
21184;DHT22;18176;49.502;11.754;2024-03-22T11:51:28;17.70;86.00
21184;DHT22;18176;49.502;11.754;2024-03-22T11:55:45;18.10;83.80
21184;DHT22;18176;49.502;11.754;2024-03-22T12:00:03;18.10;82.90
21184;DHT22;18176;49.502;11.754;2024-03-22T12:04:28;18.00;83.90
21184;DHT22;18176;49.502;11.754;2024-03-22T12:08:47;18.30;87.10
21184;DHT22;18176;49.502;11.754;2024-03-22T12:13:04;18.70;86.30
21184;DHT22;18176;49.502;11.754;2024-03-22T12:17:21;19.70;86.50
21184;DHT22;18176;49.502;11.754;2024-03-22T12:21:38;20.80;84.50
21184;DHT22;18176;49.502;11.754;2024-03-22T12:25:57;20.30;83.60
21184;DHT22;18176;49.502;11.754;2024-03-22T12:30:14;20.30;85.20
21184;DHT22;18176;49.502;11.754;2024-03-22T12:34:32;21.00;84.10
21184;DHT22;18176;49.502;11.754;2024-03-22T12:38:49;21.40;81.70
21184;DHT22;18176;49.502;11.754;2024-03-22T12:43:09;21.90;80.40
21184;DHT22;18176;49.502;11.754;2024-03-22T12:47:27;22.00;80.70
21184;DHT22;18176;49.502;11.754;2024-03-22T12:51:44;22.70;78.90
21184;DHT22;18176;49.502;11.754;2024-03-22T12:56:02;22.50;77.20
21184;DHT22;18176;49.502;11.754;2024-03-22T13:00:22;22.50;77.80
21184;DHT22;18176;49.502;11.754;2024-03-22T13:04:39;22.60;77.60
21184;DHT22;18176;49.502;11.754;2024-03-22T13:08:56;24.10;75.70
21184;DHT22;18176;49.502;11.754;2024-03-22T13:13:14;24.70;74.20
21184;DHT22;18176;49.502;11.754;2024-03-22T13:17:33;25.60;70.00
21184;DHT22;18176;49.502;11.754;2024-03-22T13:21:50;27.30;69.00
21184;DHT22;18176;49.502;11.754;2024-03-22T13:26:07;28.10;62.70
21184;DHT22;18176;49.502;11.754;2024-03-22T13:30:24;27.40;60.50
21184;DHT22;18176;49.502;11.754;2024-03-22T13:34:44;26.50;62.20
21184;DHT22;18176;49.502;11.754;2024-03-22T13:39:01;26.70;62.10
21184;DHT22;18176;49.502;11.754;2024-03-22T13:43:18;26.50;58.30
21184;DHT22;18176;49.502;11.754;2024-03-22T13:47:35;24.30;62.20
21184;DHT22;18176;49.502;11.754;2024-03-22T13:51:54;23.00;65.40
21184;DHT22;18176;49.502;11.754;2024-03-22T13:56:15;22.20;68.40
21184;DHT22;18176;49.502;11.754;2024-03-22T14:00:32;21.80;68.50
21184;DHT22;18176;49.502;11.754;2024-03-22T14:04:49;21.80;70.20
21184;DHT22;18176;49.502;11.754;2024-03-22T14:09:08;22.00;68.70
21184;DHT22;18176;49.502;11.754;2024-03-22T14:13:26;22.00;67.10
21184;DHT22;18176;49.502;11.754;2024-03-22T14:17:43;21.70;65.20
21184;DHT22;18176;49.502;11.754;2024-03-22T14:22:01;21.50;66.20
21184;DHT22;18176;49.502;11.754;2024-03-22T14:26:20;21.00;67.50
21184;DHT22;18176;49.502;11.754;2024-03-22T14:30:37;20.70;67.80
21184;DHT22;18176;49.502;11.754;2024-03-22T14:34:54;19.80;68.80
21184;DHT22;18176;49.502;11.754;2024-03-22T14:39:11;19.90;65.50
21184;DHT22;18176;49.502;11.754;2024-03-22T14:43:31;19.60;63.80
21184;DHT22;18176;49.502;11.754;2024-03-22T14:47:48;19.20;64.90
21184;DHT22;18176;49.502;11.754;2024-03-22T14:52:06;19.10;65.80
21184;DHT22;18176;49.502;11.754;2024-03-22T14:56:23;18.80;67.10
21184;DHT22;18176;49.502;11.754;2024-03-22T15:00:51;18.30;69.00
21184;DHT22;18176;49.502;11.754;2024-03-22T15:05:11;18.10;71.50
21184;DHT22;18176;49.502;11.754;2024-03-22T15:09:28;18.10;72.00
21184;DHT22;18176;49.502;11.754;2024-03-22T15:13:45;17.70;73.00
21184;DHT22;18176;49.502;11.754;2024-03-22T15:18:05;17.40;74.70
21184;DHT22;18176;49.502;11.754;2024-03-22T15:22:22;17.20;77.10
21184;DHT22;18176;49.502;11.754;2024-03-22T15:26:39;17.10;78.50
21184;DHT22;18176;49.502;11.754;2024-03-22T15:30:56;17.00;79.60
21184;DHT22;18176;49.502;11.754;2024-03-22T15:35:35;16.90;80.40
21184;DHT22;18176;49.502;11.754;2024-03-22T15:39:53;16.70;82.30
21184;DHT22;18176;49.502;11.754;2024-03-22T15:44:10;16.50;83.00
21184;DHT22;18176;49.502;11.754;2024-03-22T15:48:27;16.50;83.30
21184;DHT22;18176;49.502;11.754;2024-03-22T15:52:46;16.50;83.70
21184;DHT22;18176;49.502;11.754;2024-03-22T15:57:04;16.40;83.30
21184;DHT22;18176;49.502;11.754;2024-03-22T16:01:21;16.50;83.70
21184;DHT22;18176;49.502;11.754;2024-03-22T16:05:49;16.40;84.60
21184;DHT22;18176;49.502;11.754;2024-03-22T16:10:10;16.30;84.60
21184;DHT22;18176;49.502;11.754;2024-03-22T16:14:28;16.30;86.50
21184;DHT22;18176;49.502;11.754;2024-03-22T16:18:45;16.20;86.30
21184;DHT22;18176;49.502;11.754;2024-03-22T16:23:02;16.10;87.00
21184;DHT22;18176;49.502;11.754;2024-03-22T16:27:22;16.10;87.70
21184;DHT22;18176;49.502;11.754;2024-03-22T16:31:39;16.10;88.50
21184;DHT22;18176;49.502;11.754;2024-03-22T16:35:56;16.10;88.70
21184;DHT22;18176;49.502;11.754;2024-03-22T16:40:13;16.00;88.50
21184;DHT22;18176;49.502;11.754;2024-03-22T16:44:33;15.90;89.40
21184;DHT22;18176;49.502;11.754;2024-03-22T16:48:50;15.80;90.30
21184;DHT22;18176;49.502;11.754;2024-03-22T16:53:07;15.80;91.10
21184;DHT22;18176;49.502;11.754;2024-03-22T16:57:24;15.60;92.40
21184;DHT22;18176;49.502;11.754;2024-03-22T17:01:44;15.50;93.40
21184;DHT22;18176;49.502;11.754;2024-03-22T17:06:00;15.40;96.10
21184;DHT22;18176;49.502;11.754;2024-03-22T17:10:17;15.50;98.50
21184;DHT22;18176;49.502;11.754;2024-03-22T17:14:34;15.20;97.10
21184;DHT22;18176;49.502;11.754;2024-03-22T17:18:53;15.20;99.90
21184;DHT22;18176;49.502;11.754;2024-03-22T17:23:10;15.10;99.90
21184;DHT22;18176;49.502;11.754;2024-03-22T17:27:27;14.90;97.40
21184;DHT22;18176;49.502;11.754;2024-03-22T17:31:44;15.00;98.90
21184;DHT22;18176;49.502;11.754;2024-03-22T17:36:04;15.20;99.50
21184;DHT22;18176;49.502;11.754;2024-03-22T17:40:21;15.40;97.50
21184;DHT22;18176;49.502;11.754;2024-03-22T17:44:38;15.50;96.90
21184;DHT22;18176;49.502;11.754;2024-03-22T17:48:55;15.40;96.90
21184;DHT22;18176;49.502;11.754;2024-03-22T17:53:15;15.30;96.90
21184;DHT22;18176;49.502;11.754;2024-03-22T17:57:32;15.10;97.50
21184;DHT22;18176;49.502;11.754;2024-03-22T18:01:49;14.90;98.30
21184;DHT22;18176;49.502;11.754;2024-03-22T18:06:07;14.70;99.90
21184;DHT22;18176;49.502;11.754;2024-03-22T18:10:26;14.50;99.90
21184;DHT22;18176;49.502;11.754;2024-03-22T18:14:43;14.30;99.90
21184;DHT22;18176;49.502;11.754;2024-03-22T18:19:00;14.10;99.90
21184;DHT22;18176;49.502;11.754;2024-03-22T18:23:18;14.00;99.90
21184;DHT22;18176;49.502;11.754;2024-03-22T18:27:37;13.70;99.90
21184;DHT22;18176;49.502;11.754;2024-03-22T18:31:54;14.00;99.90
21184;DHT22;18176;49.502;11.754;2024-03-22T18:36:11;13.20;99.90
21184;DHT22;18176;49.502;11.754;2024-03-22T18:40:28;13.10;99.90
21184;DHT22;18176;49.502;11.754;2024-03-22T18:44:48;13.00;99.90
21184;DHT22;18176;49.502;11.754;2024-03-22T18:49:05;13.00;99.90
21184;DHT22;18176;49.502;11.754;2024-03-22T18:53:21;13.00;99.90
21184;DHT22;18176;49.502;11.754;2024-03-22T18:57:38;13.10;99.90
21184;DHT22;18176;49.502;11.754;2024-03-22T19:01:58;13.10;99.90
21184;DHT22;18176;49.502;11.754;2024-03-22T19:06:15;13.10;99.90
21184;DHT22;18176;49.502;11.754;2024-03-22T19:10:32;13.00;99.90
21184;DHT22;18176;49.502;11.754;2024-03-22T19:14:49;13.10;99.90
21184;DHT22;18176;49.502;11.754;2024-03-22T19:19:08;13.00;99.90
21184;DHT22;18176;49.502;11.754;2024-03-22T19:23:25;12.90;99.90
21184;DHT22;18176;49.502;11.754;2024-03-22T19:27:43;12.70;99.90
21184;DHT22;18176;49.502;11.754;2024-03-22T19:32:00;12.60;99.90
21184;DHT22;18176;49.502;11.754;2024-03-22T19:36:19;12.60;99.90
21184;DHT22;18176;49.502;11.754;2024-03-22T19:40:37;12.60;99.90
21184;DHT22;18176;49.502;11.754;2024-03-22T19:44:54;12.60;99.90
21184;DHT22;18176;49.502;11.754;2024-03-22T19:49:11;12.50;99.90
21184;DHT22;18176;49.502;11.754;2024-03-22T19:53:30;12.50;99.90
21184;DHT22;18176;49.502;11.754;2024-03-22T19:57:47;12.50;99.90
21184;DHT22;18176;49.502;11.754;2024-03-22T20:02:04;12.50;99.90
21184;DHT22;18176;49.502;11.754;2024-03-22T20:06:21;12.40;99.90
21184;DHT22;18176;49.502;11.754;2024-03-22T20:10:40;12.40;99.90
21184;DHT22;18176;49.502;11.754;2024-03-22T20:14:57;12.40;99.90
21184;DHT22;18176;49.502;11.754;2024-03-22T20:19:14;12.30;99.90
21184;DHT22;18176;49.502;11.754;2024-03-22T20:23:31;12.30;99.90
21184;DHT22;18176;49.502;11.754;2024-03-22T20:27:50;12.30;99.90
21184;DHT22;18176;49.502;11.754;2024-03-22T20:32:08;12.20;99.90
21184;DHT22;18176;49.502;11.754;2024-03-22T20:36:25;12.20;99.90
